createdAt,value
2019-05-18T00:00:42.182Z,13.70
2019-05-18T00:03:17.274Z,13.72
2019-05-18T00:05:52.405Z,13.65
2019-05-18T00:08:27.932Z,13.63
2019-05-18T00:11:03.185Z,13.58
2019-05-18T00:13:38.317Z,13.53
2019-05-18T00:16:16.830Z,13.54
2019-05-18T00:18:52.208Z,13.45
2019-05-18T00:21:27.321Z,13.40
2019-05-18T00:24:02.724Z,13.38
2019-05-18T00:26:37.955Z,13.39
2019-05-18T00:29:13.159Z,13.32
2019-05-18T00:31:48.302Z,13.29
2019-05-18T00:34:23.895Z,13.25
2019-05-18T00:37:00.955Z,13.19
2019-05-18T00:39:37.459Z,13.20
2019-05-18T00:42:12.652Z,13.14
2019-05-18T00:44:49.746Z,13.13
2019-05-18T00:47:40.080Z,13.14
2019-05-18T00:50:09.059Z,13.09
2019-05-18T00:52:44.533Z,13.13
2019-05-18T00:55:19.848Z,13.10
2019-05-18T00:57:54.942Z,13.09
2019-05-18T01:00:31.192Z,13.04
2019-05-18T01:03:06.355Z,13.00
2019-05-18T01:05:41.796Z,12.99
2019-05-18T01:08:16.932Z,12.96
2019-05-18T01:10:53.356Z,12.99
2019-05-18T01:13:28.687Z,12.97
2019-05-18T01:16:03.859Z,12.92
2019-05-18T01:18:42.331Z,12.94
2019-05-18T01:21:17.463Z,12.88
2019-05-18T01:23:52.717Z,12.80
2019-05-18T01:26:27.923Z,12.74
2019-05-18T01:29:04.124Z,12.71
2019-05-18T01:31:39.784Z,12.68
2019-05-18T01:34:15.117Z,12.73
2019-05-18T01:36:50.358Z,12.72
2019-05-18T01:39:26.584Z,12.68
2019-05-18T01:42:02.035Z,12.71
2019-05-18T01:44:39.904Z,12.66
2019-05-18T01:47:15.150Z,12.63
2019-05-18T01:49:50.325Z,12.63
2019-05-18T01:52:26.689Z,12.61
2019-05-18T01:55:02.763Z,12.59
2019-05-18T01:57:38.123Z,12.58
2019-05-18T02:00:17.115Z,12.51
2019-05-18T02:02:53.318Z,12.49
2019-05-18T02:05:28.533Z,12.49
2019-05-18T02:08:03.650Z,12.43
2019-05-18T02:10:38.726Z,12.44
2019-05-18T02:13:13.892Z,12.42
2019-05-18T02:15:50.111Z,12.41
2019-05-18T02:18:29.001Z,12.39
2019-05-18T02:21:02.930Z,12.37
2019-05-18T02:23:38.071Z,12.32
2019-05-18T02:26:13.346Z,12.31
2019-05-18T02:28:49.473Z,12.28
2019-05-18T02:31:24.834Z,12.25
2019-05-18T02:34:00.315Z,12.25
2019-05-18T02:36:35.706Z,12.22
2019-05-18T02:39:12.779Z,12.23
2019-05-18T02:41:49.977Z,12.17
2019-05-18T02:44:25.113Z,12.13
2019-05-18T02:47:00.294Z,12.12
2019-05-18T02:49:35.600Z,12.09
2019-05-18T02:52:11.172Z,12.07
2019-05-18T02:54:47.307Z,12.04
2019-05-18T02:57:23.853Z,12.03
2019-05-18T02:59:59.413Z,11.99
2019-05-18T03:02:34.507Z,12.02
2019-05-18T03:05:10.627Z,12.00
2019-05-18T03:07:46.112Z,12.00
2019-05-18T03:10:21.260Z,12.02
2019-05-18T03:12:57.742Z,12.02
2019-05-18T03:15:32.944Z,12.00
2019-05-18T03:18:08.107Z,11.95
2019-05-18T03:20:44.376Z,11.95
2019-05-18T03:23:20.578Z,11.92
2019-05-18T03:25:55.828Z,11.95
2019-05-18T03:28:35.728Z,11.89
2019-05-18T03:31:13.432Z,11.93
2019-05-18T03:33:48.584Z,11.92
2019-05-18T03:36:24.650Z,11.94
2019-05-18T03:38:59.798Z,11.95
2019-05-18T03:41:34.958Z,11.95
2019-05-18T03:44:11.730Z,11.96
2019-05-18T03:46:47.838Z,11.96
2019-05-18T03:49:27.062Z,12.00
2019-05-18T03:52:00.983Z,12.00
2019-05-18T03:54:37.750Z,12.03
2019-05-18T03:57:12.884Z,12.06
2019-05-18T03:59:52.589Z,12.10
2019-05-18T04:02:27.732Z,12.11
2019-05-18T04:05:04.513Z,12.14
2019-05-18T04:07:39.619Z,12.19
2019-05-18T04:10:14.770Z,12.21
2019-05-18T04:12:50.012Z,12.26
2019-05-18T04:15:25.288Z,12.28
2019-05-18T04:18:00.544Z,12.31
2019-05-18T04:20:36.749Z,12.34
2019-05-18T04:23:12.020Z,12.35
2019-05-18T04:25:51.079Z,12.37
2019-05-18T04:28:29.449Z,12.36
2019-05-18T04:31:04.905Z,12.39
2019-05-18T04:33:41.091Z,12.42
2019-05-18T04:36:16.230Z,12.44
2019-05-18T04:38:57.374Z,12.49
2019-05-18T04:41:32.512Z,12.52
2019-05-18T04:44:07.949Z,12.55
2019-05-18T04:46:44.728Z,12.55
2019-05-18T04:49:22.772Z,12.53
2019-05-18T04:51:57.938Z,12.50
2019-05-18T04:54:33.211Z,12.49
2019-05-18T04:57:08.366Z,12.49
2019-05-18T04:59:43.727Z,12.51
2019-05-18T05:02:19.941Z,12.52
2019-05-18T05:04:56.857Z,12.58
2019-05-18T05:07:32.189Z,12.63
2019-05-18T05:10:08.255Z,12.70
2019-05-18T05:12:43.594Z,12.76
2019-05-18T05:15:19.010Z,12.83
2019-05-18T05:17:59.148Z,12.90
2019-05-18T05:20:35.148Z,13.01
2019-05-18T05:23:13.980Z,13.11
2019-05-18T05:25:50.342Z,13.20
2019-05-18T05:28:30.220Z,13.34
2019-05-18T05:31:06.408Z,13.42
2019-05-18T05:33:42.438Z,13.53
2019-05-18T05:36:17.777Z,13.66
2019-05-18T05:38:54.805Z,13.77
2019-05-18T05:41:30.297Z,13.86
2019-05-18T05:44:07.416Z,13.98
2019-05-18T05:46:44.206Z,14.03
2019-05-18T05:49:19.648Z,14.08
2019-05-18T05:51:54.737Z,14.13
2019-05-18T05:54:30.437Z,14.23
2019-05-18T05:57:05.914Z,14.33
2019-05-18T05:59:41.210Z,14.37
2019-05-18T06:02:16.701Z,14.47
2019-05-18T06:04:51.806Z,14.60
2019-05-18T06:07:27.962Z,14.77
2019-05-18T06:10:03.290Z,14.88
2019-05-18T06:12:40.379Z,15.01
2019-05-18T06:15:15.639Z,15.11
2019-05-18T06:17:50.806Z,15.20
2019-05-18T06:20:27.277Z,15.34
2019-05-18T06:23:02.771Z,15.44
2019-05-18T06:25:38.037Z,15.58
2019-05-18T06:28:14.244Z,15.65
2019-05-18T06:30:49.666Z,15.75
2019-05-18T06:33:25.838Z,15.90
2019-05-18T06:36:01.127Z,16.02
2019-05-18T06:38:36.372Z,16.13
2019-05-18T06:41:11.698Z,16.20
2019-05-18T06:43:48.826Z,16.32
2019-05-18T06:46:25.011Z,16.37
2019-05-18T06:49:00.371Z,16.45
2019-05-18T06:51:35.897Z,16.57
2019-05-18T06:54:12.539Z,16.68
2019-05-18T06:56:47.998Z,16.73
2019-05-18T06:59:24.804Z,16.80
2019-05-18T07:02:00.136Z,16.92
2019-05-18T07:04:36.237Z,17.04
2019-05-18T07:07:13.322Z,17.14
2019-05-18T07:09:49.536Z,17.18
2019-05-18T07:12:25.756Z,17.28
2019-05-18T07:15:01.094Z,17.35
2019-05-18T07:17:36.599Z,17.51
2019-05-18T07:20:14.105Z,17.68
2019-05-18T07:22:50.309Z,17.87
2019-05-18T07:25:29.196Z,18.05
2019-05-18T07:28:04.690Z,18.26
2019-05-18T07:30:40.343Z,18.51
2019-05-18T07:33:15.504Z,18.75
2019-05-18T07:35:53.819Z,19.44
2019-05-18T07:38:29.028Z,20.79
2019-05-18T07:41:04.507Z,22.03
2019-05-18T07:43:40.564Z,23.35
2019-05-18T07:46:17.951Z,23.99
2019-05-18T07:48:54.501Z,24.65
2019-05-18T07:51:48.725Z,26.11
2019-05-18T07:54:32.800Z,26.07
2019-05-18T07:57:09.592Z,26.89
2019-05-18T07:59:48.396Z,27.33
2019-05-18T08:02:27.369Z,27.71
2019-05-18T08:05:04.025Z,28.51
2019-05-18T08:07:44.611Z,28.04
2019-05-18T08:10:38.818Z,28.19
2019-05-18T08:13:21.089Z,27.56
2019-05-18T08:15:59.809Z,27.81
2019-05-18T08:18:38.341Z,27.30
2019-05-18T08:21:16.296Z,28.06
2019-05-18T08:23:59.025Z,28.72
2019-05-18T08:26:36.902Z,28.26
2019-05-18T08:29:22.791Z,28.43
2019-05-18T08:32:01.065Z,28.56
2019-05-18T08:34:43.037Z,28.65
2019-05-18T08:37:20.512Z,28.77
2019-05-18T08:40:00.590Z,28.89
2019-05-18T08:42:40.907Z,28.79
2019-05-18T08:45:17.616Z,28.84
2019-05-18T08:47:54.388Z,29.26
2019-05-18T08:50:36.955Z,29.03
2019-05-18T08:53:23.988Z,29.42
2019-05-18T08:56:03.564Z,29.11
2019-05-18T08:58:42.078Z,28.37
2019-05-18T09:01:21.029Z,28.55
2019-05-18T09:04:00.322Z,29.51
2019-05-18T09:06:39.754Z,29.48
2019-05-18T09:09:18.832Z,29.49
2019-05-18T09:12:06.618Z,29.75
2019-05-18T09:14:46.289Z,30.52
2019-05-18T09:17:26.242Z,31.23
2019-05-18T09:20:10.525Z,31.08
2019-05-18T09:22:48.507Z,30.62
2019-05-18T09:25:29.558Z,30.10
2019-05-18T09:28:12.446Z,30.46
2019-05-18T09:30:52.569Z,29.50
2019-05-18T09:33:30.924Z,30.58
2019-05-18T09:36:10.989Z,30.86
2019-05-18T09:39:01.903Z,30.72
2019-05-18T09:41:42.655Z,30.66
2019-05-18T09:44:18.322Z,31.03
2019-05-18T09:46:57.191Z,31.28
2019-05-18T09:49:34.171Z,31.26
2019-05-18T09:52:09.992Z,31.13
2019-05-18T09:55:08.450Z,31.20
2019-05-18T09:57:50.319Z,29.95
2019-05-18T10:00:28.281Z,30.12
2019-05-18T10:03:09.193Z,30.28
2019-05-18T10:05:45.953Z,30.31
2019-05-18T10:08:21.644Z,31.19
2019-05-18T10:10:58.485Z,31.40
2019-05-18T10:13:42.474Z,31.78
2019-05-18T10:16:25.987Z,32.73
2019-05-18T10:19:06.678Z,32.25
2019-05-18T10:21:46.385Z,32.13
2019-05-18T10:24:27.338Z,32.38
2019-05-18T10:27:05.625Z,31.26
2019-05-18T10:29:46.655Z,31.69
2019-05-18T10:32:22.814Z,31.65
2019-05-18T10:35:03.866Z,32.15
2019-05-18T10:37:47.742Z,31.75
2019-05-18T10:40:25.924Z,30.59
2019-05-18T10:43:05.760Z,29.67
2019-05-18T10:45:51.828Z,29.70
2019-05-18T10:48:30.661Z,30.37
2019-05-18T10:51:10.505Z,30.90
2019-05-18T10:54:17.049Z,29.85
2019-05-18T10:56:55.639Z,29.39
2019-05-18T10:59:33.154Z,28.98
2019-05-18T11:02:10.838Z,29.64
2019-05-18T11:04:50.992Z,29.82
2019-05-18T11:07:29.517Z,28.87
2019-05-18T11:10:10.820Z,28.33
2019-05-18T11:13:01.291Z,27.63
2019-05-18T11:18:30.380Z,27.61
2019-05-18T11:21:21.811Z,28.63
2019-05-18T11:26:54.552Z,27.13
2019-05-18T11:29:44.178Z,26.53
2019-05-18T11:32:24.638Z,26.89
2019-05-18T11:35:11.987Z,27.76
2019-05-18T11:37:54.618Z,27.90
2019-05-18T11:43:32.433Z,27.30
2019-05-18T11:46:12.166Z,26.85
2019-05-18T11:48:52.541Z,27.09
2019-05-18T11:51:39.392Z,27.59
2019-05-18T11:54:20.503Z,27.69
2019-05-18T11:56:59.568Z,27.45
2019-05-18T11:59:39.332Z,27.01
2019-05-18T12:02:14.439Z,27.41
2019-05-18T12:05:01.726Z,28.85
2019-05-18T12:07:58.743Z,29.50
2019-05-18T12:10:43.771Z,29.33
2019-05-18T12:13:30.142Z,28.75
2019-05-18T12:16:23.929Z,28.14
2019-05-18T12:19:08.022Z,27.41
2019-05-18T12:21:44.813Z,28.40
2019-05-18T12:24:25.428Z,28.81
2019-05-18T12:27:10.838Z,28.34
2019-05-18T12:29:56.836Z,28.46
2019-05-18T12:32:47.379Z,28.24
2019-05-18T12:35:28.160Z,29.33
2019-05-18T12:38:11.894Z,31.01
2019-05-18T12:47:30.467Z,30.45
2019-05-18T12:59:42.964Z,32.66
2019-05-18T13:02:44.351Z,32.66
2019-05-18T13:30:02.799Z,34.13
2019-05-18T14:25:57.054Z,33.96
2019-05-18T14:28:42.319Z,31.58
2019-05-18T14:31:27.641Z,29.73
2019-05-18T14:34:17.807Z,29.24
2019-05-18T14:37:17.868Z,29.88
2019-05-18T14:39:54.170Z,30.47
2019-05-18T14:43:02.987Z,31.75
2019-05-18T14:45:51.836Z,32.46
2019-05-18T14:58:24.204Z,33.54
2019-05-18T15:39:46.965Z,32.61
2019-05-18T15:42:35.441Z,32.57
2019-05-18T15:48:23.103Z,33.41
2019-05-18T15:51:01.858Z,33.21
2019-05-18T15:53:45.726Z,32.94
2019-05-18T15:56:25.004Z,32.84
2019-05-18T15:59:00.849Z,32.61
2019-05-18T16:01:45.608Z,31.93
2019-05-18T16:04:30.836Z,31.35
2019-05-18T16:07:12.950Z,31.45
2019-05-18T16:10:06.293Z,31.60
2019-05-18T16:19:49.796Z,32.38
2019-05-18T16:25:36.928Z,32.18
2019-05-18T16:28:20.176Z,31.74
2019-05-18T16:31:04.292Z,32.21
2019-05-18T16:33:46.890Z,32.17
2019-05-18T16:36:32.608Z,32.09
2019-05-18T16:39:19.142Z,31.68
2019-05-18T16:42:02.202Z,31.47
2019-05-18T16:44:45.496Z,31.84
2019-05-18T16:50:26.616Z,31.14
2019-05-18T16:53:09.888Z,30.62
2019-05-18T16:55:47.700Z,30.62
2019-05-18T16:58:30.259Z,30.41
2019-05-18T17:01:23.426Z,30.30
2019-05-18T17:04:29.220Z,30.10
2019-05-18T17:10:50.115Z,29.92
2019-05-18T17:13:38.365Z,29.71
2019-05-18T17:16:34.289Z,29.73
2019-05-18T17:19:17.730Z,29.59
2019-05-18T17:25:29.544Z,28.29
2019-05-18T17:28:05.535Z,27.10
2019-05-18T17:30:44.923Z,26.51
2019-05-18T17:33:22.884Z,25.95
2019-05-18T17:36:00.622Z,25.60
2019-05-18T17:38:37.355Z,25.33
2019-05-18T17:41:15.003Z,25.16
2019-05-18T17:43:56.030Z,25.01
2019-05-18T17:46:34.395Z,24.87
2019-05-18T17:49:26.772Z,24.70
2019-05-18T17:52:12.680Z,24.62
2019-05-18T17:54:52.778Z,24.48
2019-05-18T17:57:51.678Z,24.35
2019-05-18T18:00:37.676Z,24.20
2019-05-18T18:03:16.689Z,24.06
2019-05-18T18:05:58.643Z,23.94
2019-05-18T18:08:35.668Z,23.83
2019-05-18T18:11:22.953Z,23.71
2019-05-18T18:14:08.808Z,23.61
2019-05-18T18:16:56.519Z,23.51
2019-05-18T18:19:33.701Z,23.47
2019-05-18T18:22:11.421Z,23.34
2019-05-18T18:24:55.210Z,23.21
2019-05-18T18:27:32.317Z,23.12
2019-05-18T18:30:10.964Z,23.04
2019-05-18T18:32:49.051Z,22.97
2019-05-18T18:35:30.845Z,22.85
2019-05-18T18:38:10.110Z,22.78
2019-05-18T18:40:49.209Z,22.68
2019-05-18T18:43:34.516Z,22.65
2019-05-18T18:46:10.775Z,22.47
2019-05-18T18:52:04.627Z,22.34
2019-05-18T18:54:42.852Z,22.18
2019-05-18T18:57:21.803Z,22.04
2019-05-18T19:00:05.757Z,21.86
2019-05-18T19:02:57.484Z,21.76
2019-05-18T19:05:53.899Z,21.67
2019-05-18T19:08:36.712Z,21.56
2019-05-18T19:11:17.373Z,21.49
2019-05-18T19:13:52.491Z,21.39
2019-05-18T19:16:36.171Z,21.31
2019-05-18T19:19:13.629Z,21.20
2019-05-18T19:21:50.927Z,21.17
2019-05-18T19:24:30.840Z,20.86
2019-05-18T19:27:09.873Z,20.86
2019-05-18T19:29:48.255Z,20.86
2019-05-18T19:32:26.932Z,20.74
2019-05-18T19:35:10.523Z,20.68
2019-05-18T19:37:48.402Z,20.61
2019-05-18T19:40:27.731Z,20.60
2019-05-18T19:43:04.247Z,20.56
2019-05-18T19:45:39.947Z,20.50
2019-05-18T19:48:17.112Z,20.45
2019-05-18T19:50:55.154Z,20.37
2019-05-18T19:53:30.596Z,20.30
2019-05-18T19:56:07.067Z,20.25
2019-05-18T19:58:43.709Z,20.16
2019-05-18T20:01:19.245Z,20.15
2019-05-18T20:03:54.449Z,20.08
2019-05-18T20:06:31.437Z,20.01
2019-05-18T20:09:07.247Z,20.04
2019-05-18T20:11:42.410Z,20.02
2019-05-18T20:14:17.862Z,19.98
2019-05-18T20:16:52.965Z,20.00
2019-05-18T20:19:38.787Z,19.93
2019-05-18T20:22:06.635Z,19.88
2019-05-18T20:24:45.213Z,19.83
2019-05-18T20:27:22.439Z,19.81
2019-05-18T20:29:57.738Z,19.76
2019-05-18T20:32:36.626Z,19.72
2019-05-18T20:35:13.722Z,19.73
2019-05-18T20:37:54.492Z,19.66
2019-05-18T20:40:35.647Z,19.55
2019-05-18T20:43:14.827Z,19.49
2019-05-18T20:45:50.088Z,19.40
2019-05-18T20:48:27.196Z,19.30
2019-05-18T20:51:03.283Z,19.19
2019-05-18T20:53:41.083Z,19.10
2019-05-18T20:56:17.368Z,19.01
2019-05-18T20:58:53.789Z,18.89
2019-05-18T21:01:29.088Z,18.84
2019-05-18T21:04:05.108Z,18.84
2019-05-18T21:06:41.200Z,18.85
2019-05-18T21:09:16.353Z,18.84
2019-05-18T21:11:52.810Z,18.77
2019-05-18T21:14:28.872Z,18.70
2019-05-18T21:17:03.974Z,18.68
2019-05-18T21:19:39.103Z,18.63
2019-05-18T21:22:14.693Z,18.57
2019-05-18T21:24:50.829Z,18.55
2019-05-18T21:27:27.039Z,18.45
2019-05-18T21:30:02.283Z,18.34
2019-05-18T21:32:39.087Z,18.29
2019-05-18T21:35:19.387Z,18.23
2019-05-18T21:37:56.605Z,18.20
2019-05-18T21:40:31.883Z,18.07
2019-05-18T21:43:07.163Z,17.93
2019-05-18T21:46:11.262Z,17.89
2019-05-18T21:48:58.067Z,17.89
2019-05-18T21:51:52.912Z,17.89
2019-05-18T21:54:39.028Z,17.85
2019-05-18T21:57:19.978Z,17.78
2019-05-18T21:59:56.365Z,17.74
2019-05-18T22:02:31.515Z,17.67
2019-05-18T22:05:11.727Z,17.65
2019-05-18T22:07:54.199Z,17.64
2019-05-18T22:10:34.125Z,17.73
2019-05-18T22:13:09.638Z,17.72
2019-05-18T22:15:48.290Z,17.72
2019-05-18T22:18:25.092Z,17.77
2019-05-18T22:21:00.502Z,17.75
2019-05-18T22:23:42.823Z,17.67
2019-05-18T22:26:18.291Z,17.71
2019-05-18T22:28:55.932Z,17.65
2019-05-18T22:31:31.635Z,17.83
2019-05-18T22:34:10.146Z,17.85
2019-05-18T22:36:46.392Z,17.86
2019-05-18T22:39:26.645Z,17.84
2019-05-18T22:42:04.485Z,17.84
2019-05-18T22:44:42.587Z,17.72
2019-05-18T22:47:19.217Z,17.62
2019-05-18T22:49:54.432Z,17.60
2019-05-18T22:52:33.546Z,17.65
2019-05-18T22:55:12.587Z,17.64
2019-05-18T22:57:49.245Z,17.60
2019-05-18T23:04:09.174Z,17.58
2019-05-18T23:06:48.775Z,17.48
2019-05-18T23:09:29.233Z,17.42
2019-05-18T23:12:08.276Z,17.34
2019-05-18T23:14:43.409Z,17.22
2019-05-18T23:17:21.348Z,17.11
2019-05-18T23:20:01.109Z,16.96
2019-05-18T23:22:36.574Z,16.97
2019-05-18T23:25:11.753Z,16.97
2019-05-18T23:27:47.124Z,16.97
2019-05-18T23:30:23.491Z,16.86
2019-05-18T23:33:00.302Z,16.76
2019-05-18T23:35:35.952Z,16.69
2019-05-18T23:38:12.981Z,16.61
2019-05-18T23:40:48.656Z,16.58
2019-05-18T23:43:25.065Z,16.58
2019-05-18T23:46:04.172Z,16.60
2019-05-18T23:48:41.051Z,16.66
2019-05-18T23:51:18.106Z,16.63
2019-05-18T23:53:54.043Z,16.52
2019-05-18T23:56:29.541Z,16.43
2019-05-18T23:59:05.824Z,16.27
